Hovedside
METAR-TAF:

METAR-TAF

Lufthavner :

Kärdla lufthavn

Kärdla, Estland

breddegrad: 58-59N, lengdegrad: 022-49E, høyde over havet: 5 m

Gjeldene værobservasjon

Denne rapporten ble laget for 42 minutter siden, klokken 12:50 UTC
Vind 9 kt fra Nordvest
Temperatur 5°C
Luftfuktighet 60%
Trykk 1030 hPa
Sikt 10 km eller mer
ingen skyer under 1500 m og ingen bygeskyer

METAR: EEKA 221250Z 31009KT CAVOK 05/M02 Q1030

Tid: 15:32 (13:32 UTC)

Varsel

Denne rapporten ble laget for 9 timer og 32 minutter siden, klokken 04:00 UTC
Varsel gyldig fra 22. klokken 05 UTC til 22. klokken 11 UTC
Vind 18 kt fra Nordvest med vindkast opp mot 30 kt
Sikt 10 km eller mer
ingen skyer under 1500 m og ingen bygeskyer

TAF: EEKA 220400Z 2205/2211 32018G30KT CAVOK

Værobservasjoner og værvarsel for over 4000 flyplasser (METAR- og TAF-rapporter).

Tilgjengelige stasjoner er representert av de røde og gule prikkene på kartet.

Hold musepekeren over prikken for å se navnet på stasjonen.

Klikk så for å se værobservasjoner og -varsler.

For å forandre kartet kan du klikke på den grønne knappen med svart kryss for å zoome inn, på den grønne knappen med strek for å zoome ut, eller på de grønne pilene for å se tilstøtende kart.


METAR-TAF: